Saiyo — A8ZS9 — position and weather

sailwx.info

Track history (hours):
 
Tides and Currents Weather Stations Pressure Air Temp Water Temp Dewpoint Dewpoint Depression Visibility Wind Speed Wind Dir Waves Ship Positions

Saiyo

Last reported at 2017-Dec-27 01:49 UTC. Time now 2018-Jan-18 02:22 UTC.
Position S 26°60' E 153°49'.
Warning: this ship's position is 22 days out of date.

Length 235 m; draft 12.7 m.

Type: Cargo ship. MMSI: 636015291.

Date/timePositionNaut miles runAvg speedWind from/ knotsBaromVisibWave heightAir tempDewpointWater temp
2017-Dec-27 01:49S 26°60' E 153°49'410.9
2017-Dec-27 01:25S 27°04' E 153°48'511.2
2017-Dec-27 00:58S 27°09' E 153°48'510.9
2017-Dec-27 00:30S 27°14' E 153°48'810.2
2017-Dec-26 23:44S 27°22' E 153°47'210.7
2017-Dec-26 23:30S 27°24' E 153°47'510.1
2017-Dec-26 23:00S 27°29' E 153°47'510.2
2017-Dec-26 22:30S 27°34' E 153°48'510.4
2017-Dec-26 22:00S 27°40' E 153°48'510.3
2017-Dec-26 21:30S 27°45' E 153°49'510.2
2017-Dec-26 21:00S 27°50' E 153°49'510.4
2017-Dec-26 20:30S 27°55' E 153°48'510.4
2017-Dec-26 20:00S 28°00' E 153°48'510.1
2017-Dec-26 19:30S 28°05' E 153°47'5 9.7
2017-Dec-26 19:00S 28°10' E 153°47'5 9.3
2017-Dec-26 18:30S 28°15' E 153°46'5 9.5
2017-Dec-26 18:00S 28°19' E 153°46'5 9.7
2017-Dec-26 17:31S 28°24' E 153°46'5 9.6
2017-Dec-26 17:00S 28°29' E 153°45'5 9.4
2017-Dec-26 16:29S 28°34' E 153°45'5 9.1
2017-Dec-26 15:58S 28°39' E 153°45'4 8.8
2017-Dec-26 15:29S 28°43' E 153°45'8 8.8
2017-Dec-26 14:33S 28°51' E 153°44'0 8.9
2017-Dec-26 14:30S 28°51' E 153°44'219 9.7
2017-Dec-25 15:59S 32°24' E 152°45'510.3
2017-Dec-25 15:30S 32°28' E 152°42'611.3
2017-Dec-25 15:00S 32°32' E 152°37'611.4
2017-Dec-25 14:30S 32°36' E 152°32'611.4
2017-Dec-25 14:00S 32°40' E 152°27'611.4
2017-Dec-25 13:30S 32°44' E 152°22'611.2
2017-Dec-25 13:00S 32°47' E 152°17'510.8
2017-Dec-25 12:31S 32°50' E 152°12'611.0
2017-Dec-25 12:00S 32°52' E 152°06'510.7
2017-Dec-25 11:30S 32°54' E 151°60'510.5
2017-Dec-25 11:01S 32°56' E 151°54'3 6.6
2017-Dec-25 10:30S 32°57' E 151°50'3 5.2
2017-Dec-25 10:00S 32°55' E 151°48'1 2.9
2017-Dec-25 09:30S 32°54' E 151°46'1 2.2
2017-Dec-25 08:59S 32°53' E 151°46'0 0.0
2017-Dec-25 08:29S 32°53' E 151°46'0 0.0
2017-Dec-25 07:59S 32°53' E 151°46'0 0.0
2017-Dec-25 07:29S 32°53' E 151°46'0 0.0
2017-Dec-25 06:59S 32°53' E 151°46'0 0.0
2017-Dec-25 06:29S 32°53' E 151°46'0 0.0
2017-Dec-25 05:59S 32°53' E 151°46'0 0.0
2017-Dec-25 05:29S 32°53' E 151°46'0 0.0
2017-Dec-25 04:59S 32°53' E 151°46'0 0.0
2017-Dec-25 04:29S 32°53' E 151°46'0 0.0
2017-Dec-25 03:59S 32°53' E 151°46'0 0.0
2017-Dec-25 03:29S 32°53' E 151°46'0 0.0
2017-Dec-25 02:59S 32°53' E 151°46'0 0.0
2017-Dec-25 02:29S 32°53' E 151°46'0 0.0
2017-Dec-25 01:59S 32°53' E 151°46'0 0.0
2017-Dec-25 01:29S 32°53' E 151°46'0 0.0
2017-Dec-25 00:59S 32°53' E 151°46'0 0.0
2017-Dec-25 00:29S 32°53' E 151°46'0 0.0
2017-Dec-24 23:59S 32°53' E 151°46'0 0.0
2017-Dec-24 23:29S 32°53' E 151°46'0 0.0
2017-Dec-24 22:59S 32°53' E 151°46'0 0.0
2017-Dec-24 22:29S 32°53' E 151°46'0 0.0
2017-Dec-24 21:59S 32°53' E 151°46'0 0.0
2017-Dec-24 21:29S 32°53' E 151°46'0 0.0
2017-Dec-24 20:59S 32°53' E 151°46'0 0.0
2017-Dec-24 20:29S 32°53' E 151°46'0 0.0
2017-Dec-24 19:59S 32°53' E 151°46'0 0.0
2017-Dec-24 19:29S 32°53' E 151°46'0 0.0
2017-Dec-24 18:59S 32°53' E 151°46'0 0.0
2017-Dec-24 18:29S 32°53' E 151°46'0 0.0
2017-Dec-24 17:59S 32°53' E 151°46'0 0.0
2017-Dec-24 17:29S 32°53' E 151°46'0 0.0
2017-Dec-24 16:47S 32°53' E 151°46'0 0.0
2017-Dec-24 16:29S 32°53' E 151°46'0 0.0
2017-Dec-24 15:59S 32°53' E 151°46'0 0.0
2017-Dec-24 15:29S 32°53' E 151°46'0 0.0
2017-Dec-24 14:59S 32°53' E 151°46'0 0.4
2017-Dec-24 14:30S 32°53' E 151°46'2 3.2
2017-Dec-24 14:00S 32°55' E 151°46'3 6.7
2017-Dec-24 13:30S 32°55' E 151°50'3 6.0
2017-Dec-24 13:00S 32°58' E 151°51'2 3.8
2017-Dec-24 12:30S 32°59' E 151°53'2 4.5
2017-Dec-24 12:00S 33°01' E 151°53'3 6.0
2017-Dec-24 11:30S 33°04' E 151°53'2 2.7
2017-Dec-24 10:53S 33°06' E 151°54'0 0.9
2017-Dec-24 10:29S 33°06' E 151°54'1 1.4
2017-Dec-24 09:56S 33°06' E 151°55'1 1.6
2017-Dec-24 09:29S 33°06' E 151°56'1 1.9
2017-Dec-24 08:59S 33°06' E 151°57'1 2.2
2017-Dec-24 08:29S 33°06' E 151°58'1 2.2
2017-Dec-24 07:59S 33°06' E 151°60'1 1.9
2017-Dec-24 07:29S 33°07' E 152°01'1 2.0
2017-Dec-24 06:59S 33°07' E 152°02'1 1.6
2017-Dec-24 06:26S 33°07' E 152°03'0 1.0
2017-Dec-24 05:59S 33°07' E 152°03'1 2.0
2017-Dec-24 05:29S 33°06' E 152°03'1 2.3
2017-Dec-24 05:00S 33°05' E 152°02'4 8.9
2017-Dec-24 04:30S 33°01' E 151°59'510.8
2017-Dec-24 04:00S 32°56' E 152°01'612.3
2017-Dec-24 03:30S 32°52' E 152°06'611.7
2017-Dec-24 03:00S 32°50' E 152°13'611.5
2017-Dec-24 02:30S 32°47' E 152°18'611.5
2017-Dec-24 02:00S 32°43' E 152°23'611.8
2017-Dec-24 01:30S 32°39' E 152°29'611.8
2017-Dec-24 01:00S 32°35' E 152°34'612.0
2017-Dec-24 00:30S 32°31' E 152°39'611.5
2017-Dec-24 00:00S 32°27' E 152°44'611.7
2017-Dec-23 23:30S 32°21' E 152°46'612.0
2017-Dec-23 23:00S 32°15' E 152°48'912.2
2017-Dec-23 22:14S 32°06' E 152°52'312.8
2017-Dec-23 22:00S 32°04' E 152°53'713.2
2017-Dec-23 21:30S 31°57' E 152°55'713.7
2017-Dec-23 21:00S 31°51' E 152°58'20713.3
2017-Dec-23 05:24S 28°28' E 153°46'614.1
2017-Dec-23 05:00S 28°23' E 153°47'713.8
2017-Dec-23 04:30S 28°16' E 153°47'713.5
2017-Dec-23 04:00S 28°09' E 153°48'713.2
2017-Dec-23 03:30S 28°02' E 153°48'612.9
2017-Dec-23 03:00S 27°56' E 153°47'612.8
2017-Dec-23 02:30S 27°50' E 153°46'612.8
2017-Dec-23 02:00S 27°43' E 153°46'813.0
2017-Dec-23 01:24S 27°35' E 153°46'  
Track history (hours):
 
Tides and Currents Weather Stations Pressure Air Temp Water Temp Dewpoint Dewpoint Depression Visibility Wind Speed Wind Dir Waves Ship Positions

Saiyo

Last reported at 2017-Dec-27 01:49 UTC. Time now 2018-Jan-18 02:22 UTC.
Position S 26°60' E 153°49'.
Warning: this ship's position is 22 days out of date.

Length 235 m; draft 12.7 m.

Type: Cargo ship. MMSI: 636015291.

Date/timePositionNaut miles runAvg speedWind from/ knotsBaromVisibWave heightAir tempDewpointWater temp
2017-Dec-27 01:49S 26°60' E 153°49'410.9
2017-Dec-27 01:25S 27°04' E 153°48'511.2
2017-Dec-27 00:58S 27°09' E 153°48'510.9
2017-Dec-27 00:30S 27°14' E 153°48'810.2
2017-Dec-26 23:44S 27°22' E 153°47'210.7
2017-Dec-26 23:30S 27°24' E 153°47'510.1
2017-Dec-26 23:00S 27°29' E 153°47'510.2
2017-Dec-26 22:30S 27°34' E 153°48'510.4
2017-Dec-26 22:00S 27°40' E 153°48'510.3
2017-Dec-26 21:30S 27°45' E 153°49'510.2
2017-Dec-26 21:00S 27°50' E 153°49'510.4
2017-Dec-26 20:30S 27°55' E 153°48'510.4
2017-Dec-26 20:00S 28°00' E 153°48'510.1
2017-Dec-26 19:30S 28°05' E 153°47'5 9.7
2017-Dec-26 19:00S 28°10' E 153°47'5 9.3
2017-Dec-26 18:30S 28°15' E 153°46'5 9.5
2017-Dec-26 18:00S 28°19' E 153°46'5 9.7
2017-Dec-26 17:31S 28°24' E 153°46'5 9.6
2017-Dec-26 17:00S 28°29' E 153°45'5 9.4
2017-Dec-26 16:29S 28°34' E 153°45'5 9.1
2017-Dec-26 15:58S 28°39' E 153°45'4 8.8
2017-Dec-26 15:29S 28°43' E 153°45'8 8.8
2017-Dec-26 14:33S 28°51' E 153°44'0 8.9
2017-Dec-26 14:30S 28°51' E 153°44'219 9.7
2017-Dec-25 15:59S 32°24' E 152°45'510.3
2017-Dec-25 15:30S 32°28' E 152°42'611.3
2017-Dec-25 15:00S 32°32' E 152°37'611.4
2017-Dec-25 14:30S 32°36' E 152°32'611.4
2017-Dec-25 14:00S 32°40' E 152°27'611.4
2017-Dec-25 13:30S 32°44' E 152°22'611.2
2017-Dec-25 13:00S 32°47' E 152°17'510.8
2017-Dec-25 12:31S 32°50' E 152°12'611.0
2017-Dec-25 12:00S 32°52' E 152°06'510.7
2017-Dec-25 11:30S 32°54' E 151°60'510.5
2017-Dec-25 11:01S 32°56' E 151°54'3 6.6
2017-Dec-25 10:30S 32°57' E 151°50'3 5.2
2017-Dec-25 10:00S 32°55' E 151°48'1 2.9
2017-Dec-25 09:30S 32°54' E 151°46'1 2.2
2017-Dec-25 08:59S 32°53' E 151°46'0 0.0
2017-Dec-25 08:29S 32°53' E 151°46'0 0.0
2017-Dec-25 07:59S 32°53' E 151°46'0 0.0
2017-Dec-25 07:29S 32°53' E 151°46'0 0.0
2017-Dec-25 06:59S 32°53' E 151°46'0 0.0
2017-Dec-25 06:29S 32°53' E 151°46'0 0.0
2017-Dec-25 05:59S 32°53' E 151°46'0 0.0
2017-Dec-25 05:29S 32°53' E 151°46'0 0.0
2017-Dec-25 04:59S 32°53' E 151°46'0 0.0
2017-Dec-25 04:29S 32°53' E 151°46'0 0.0
2017-Dec-25 03:59S 32°53' E 151°46'0 0.0
2017-Dec-25 03:29S 32°53' E 151°46'0 0.0
2017-Dec-25 02:59S 32°53' E 151°46'0 0.0
2017-Dec-25 02:29S 32°53' E 151°46'0 0.0
2017-Dec-25 01:59S 32°53' E 151°46'0 0.0
2017-Dec-25 01:29S 32°53' E 151°46'0 0.0
2017-Dec-25 00:59S 32°53' E 151°46'0 0.0
2017-Dec-25 00:29S 32°53' E 151°46'0 0.0
2017-Dec-24 23:59S 32°53' E 151°46'0 0.0
2017-Dec-24 23:29S 32°53' E 151°46'0 0.0
2017-Dec-24 22:59S 32°53' E 151°46'0 0.0
2017-Dec-24 22:29S 32°53' E 151°46'0 0.0
2017-Dec-24 21:59S 32°53' E 151°46'0 0.0
2017-Dec-24 21:29S 32°53' E 151°46'0 0.0
2017-Dec-24 20:59S 32°53' E 151°46'0 0.0
2017-Dec-24 20:29S 32°53' E 151°46'0 0.0
2017-Dec-24 19:59S 32°53' E 151°46'0 0.0
2017-Dec-24 19:29S 32°53' E 151°46'0 0.0
2017-Dec-24 18:59S 32°53' E 151°46'0 0.0
2017-Dec-24 18:29S 32°53' E 151°46'0 0.0
2017-Dec-24 17:59S 32°53' E 151°46'0 0.0
2017-Dec-24 17:29S 32°53' E 151°46'0 0.0
2017-Dec-24 16:47S 32°53' E 151°46'0 0.0
2017-Dec-24 16:29S 32°53' E 151°46'0 0.0
2017-Dec-24 15:59S 32°53' E 151°46'0 0.0
2017-Dec-24 15:29S 32°53' E 151°46'0 0.0
2017-Dec-24 14:59S 32°53' E 151°46'0 0.4
2017-Dec-24 14:30S 32°53' E 151°46'2 3.2
2017-Dec-24 14:00S 32°55' E 151°46'3 6.7
2017-Dec-24 13:30S 32°55' E 151°50'3 6.0
2017-Dec-24 13:00S 32°58' E 151°51'2 3.8
2017-Dec-24 12:30S 32°59' E 151°53'2 4.5
2017-Dec-24 12:00S 33°01' E 151°53'3 6.0
2017-Dec-24 11:30S 33°04' E 151°53'2 2.7
2017-Dec-24 10:53S 33°06' E 151°54'0 0.9
2017-Dec-24 10:29S 33°06' E 151°54'1 1.4
2017-Dec-24 09:56S 33°06' E 151°55'1 1.6
2017-Dec-24 09:29S 33°06' E 151°56'1 1.9
2017-Dec-24 08:59S 33°06' E 151°57'1 2.2
2017-Dec-24 08:29S 33°06' E 151°58'1 2.2
2017-Dec-24 07:59S 33°06' E 151°60'1 1.9
2017-Dec-24 07:29S 33°07' E 152°01'1 2.0
2017-Dec-24 06:59S 33°07' E 152°02'1 1.6
2017-Dec-24 06:26S 33°07' E 152°03'0 1.0
2017-Dec-24 05:59S 33°07' E 152°03'1 2.0
2017-Dec-24 05:29S 33°06' E 152°03'1 2.3
2017-Dec-24 05:00S 33°05' E 152°02'4 8.9
2017-Dec-24 04:30S 33°01' E 151°59'510.8
2017-Dec-24 04:00S 32°56' E 152°01'612.3
2017-Dec-24 03:30S 32°52' E 152°06'611.7
2017-Dec-24 03:00S 32°50' E 152°13'611.5
2017-Dec-24 02:30S 32°47' E 152°18'611.5
2017-Dec-24 02:00S 32°43' E 152°23'611.8
2017-Dec-24 01:30S 32°39' E 152°29'611.8
2017-Dec-24 01:00S 32°35' E 152°34'612.0
2017-Dec-24 00:30S 32°31' E 152°39'611.5
2017-Dec-24 00:00S 32°27' E 152°44'611.7
2017-Dec-23 23:30S 32°21' E 152°46'612.0
2017-Dec-23 23:00S 32°15' E 152°48'912.2
2017-Dec-23 22:14S 32°06' E 152°52'312.8
2017-Dec-23 22:00S 32°04' E 152°53'713.2
2017-Dec-23 21:30S 31°57' E 152°55'713.7
2017-Dec-23 21:00S 31°51' E 152°58'20713.3
2017-Dec-23 05:24S 28°28' E 153°46'614.1
2017-Dec-23 05:00S 28°23' E 153°47'713.8
2017-Dec-23 04:30S 28°16' E 153°47'713.5
2017-Dec-23 04:00S 28°09' E 153°48'713.2
2017-Dec-23 03:30S 28°02' E 153°48'612.9
2017-Dec-23 03:00S 27°56' E 153°47'612.8
2017-Dec-23 02:30S 27°50' E 153°46'612.8
2017-Dec-23 02:00S 27°43' E 153°46'813.0
2017-Dec-23 01:24S 27°35' E 153°46'  

Dump ship's entire track history